createdAt,value
2022-08-14T00:00:43.676Z,59.20
2022-08-14T00:04:31.972Z,59.50
2022-08-14T00:08:18.349Z,60.60
2022-08-14T00:12:24.203Z,60.40
2022-08-14T00:16:06.986Z,61.00
2022-08-14T00:19:51.616Z,60.30
2022-08-14T00:23:33.871Z,60.50
2022-08-14T00:27:15.883Z,60.80
2022-08-14T00:31:00.212Z,61.10
2022-08-14T00:34:47.182Z,61.50
2022-08-14T00:38:31.891Z,61.40
2022-08-14T00:42:52.924Z,61.80
2022-08-14T00:46:32.261Z,61.90
2022-08-14T00:50:18.545Z,62.50
2022-08-14T00:54:04.849Z,62.70
2022-08-14T00:58:18.673Z,63.20
2022-08-14T01:02:12.438Z,63.50
2022-08-14T01:05:54.651Z,63.20
2022-08-14T01:09:39.230Z,63.40
2022-08-14T01:13:26.765Z,63.80
2022-08-14T01:17:49.203Z,64.30
2022-08-14T01:21:38.713Z,64.80
2022-08-14T01:25:29.073Z,64.00
2022-08-14T01:29:16.182Z,65.10
2022-08-14T01:33:13.574Z,65.30
2022-08-14T01:36:55.612Z,65.70
2022-08-14T01:40:41.671Z,66.20
2022-08-14T01:44:32.198Z,66.50
2022-08-14T01:48:16.216Z,66.40
2022-08-14T01:52:03.694Z,67.10
2022-08-14T01:55:51.727Z,67.40
2022-08-14T01:59:38.045Z,67.90
2022-08-14T02:03:21.076Z,68.30
2022-08-14T02:07:06.017Z,68.50
2022-08-14T02:11:22.479Z,68.70
2022-08-14T02:15:06.136Z,68.80
2022-08-14T02:18:49.231Z,68.60
2022-08-14T02:22:47.399Z,69.00
2022-08-14T02:26:33.447Z,68.80
2022-08-14T02:30:38.325Z,68.70
2022-08-14T02:34:27.571Z,68.70
2022-08-14T02:38:11.493Z,69.10
2022-08-14T02:41:58.001Z,69.50
2022-08-14T02:45:44.762Z,69.60
2022-08-14T02:49:27.541Z,69.90
2022-08-14T02:53:16.331Z,70.30
2022-08-14T02:57:15.378Z,70.80
2022-08-14T03:01:01.284Z,70.60
2022-08-14T03:04:43.771Z,71.20
2022-08-14T03:08:31.730Z,71.50
2022-08-14T03:12:13.767Z,71.80
2022-08-14T03:16:19.935Z,72.20
2022-08-14T03:20:11.996Z,72.50
2022-08-14T03:24:21.505Z,72.60
2022-08-14T03:28:07.669Z,73.00
2022-08-14T03:31:57.593Z,72.50
2022-08-14T03:36:05.279Z,72.60
2022-08-14T03:39:44.276Z,73.30
2022-08-14T03:43:28.318Z,73.80
2022-08-14T03:47:15.339Z,74.50
2022-08-14T03:50:57.602Z,74.90
2022-08-14T03:54:42.096Z,75.10
2022-08-14T03:58:36.189Z,75.70
2022-08-14T04:02:33.226Z,75.80
2022-08-14T04:06:22.390Z,76.50
2022-08-14T04:10:10.385Z,77.10
2022-08-14T04:13:52.463Z,77.50
2022-08-14T04:17:34.409Z,78.00
2022-08-14T04:21:17.736Z,78.30
2022-08-14T04:25:04.945Z,78.70
2022-08-14T04:29:08.343Z,79.70
2022-08-14T04:33:00.674Z,79.60
2022-08-14T04:37:04.056Z,80.00
2022-08-14T04:41:08.270Z,80.20
2022-08-14T04:44:52.496Z,80.50
2022-08-14T04:48:50.970Z,81.00
2022-08-14T04:52:33.397Z,81.70
2022-08-14T04:56:33.906Z,82.10
2022-08-14T05:00:18.227Z,82.50
2022-08-14T05:04:00.443Z,75.60
2022-08-14T05:07:53.811Z,82.80
2022-08-14T05:11:44.281Z,83.60
2022-08-14T05:15:29.555Z,84.00
2022-08-14T05:19:18.019Z,84.50
2022-08-14T05:23:08.043Z,85.10
2022-08-14T05:26:53.427Z,85.30
2022-08-14T05:30:35.657Z,85.20
2022-08-14T05:34:17.880Z,85.30
2022-08-14T05:38:10.631Z,85.70
2022-08-14T05:41:54.353Z,85.70
2022-08-14T05:45:37.027Z,85.90
2022-08-14T05:49:18.949Z,86.00
2022-08-14T05:53:01.530Z,86.20
2022-08-14T05:56:45.056Z,86.00
2022-08-14T06:00:38.804Z,86.00
2022-08-14T06:04:21.547Z,86.30
2022-08-14T06:08:08.668Z,85.70
2022-08-14T06:12:04.150Z,85.10
2022-08-14T06:15:48.966Z,85.70
2022-08-14T06:19:31.150Z,84.50
2022-08-14T06:23:13.350Z,84.00
2022-08-14T06:26:56.943Z,83.30
2022-08-14T06:30:47.626Z,81.10
2022-08-14T06:35:03.560Z,80.60
2022-08-14T06:38:31.651Z,79.50
2022-08-14T06:42:25.601Z,77.70
2022-08-14T06:46:23.266Z,78.10
2022-08-14T06:50:19.361Z,77.20
2022-08-14T06:54:01.897Z,77.10
2022-08-14T06:57:50.814Z,74.90
2022-08-14T07:01:51.183Z,73.90
2022-08-14T07:05:58.556Z,73.30
2022-08-14T07:09:50.415Z,71.20
2022-08-14T07:13:33.145Z,69.30
2022-08-14T07:17:15.151Z,68.30
2022-08-14T07:21:00.104Z,67.20
2022-08-14T07:24:42.405Z,65.70
2022-08-14T07:28:33.478Z,64.00
2022-08-14T07:32:20.065Z,63.30
2022-08-14T07:36:09.017Z,61.50
2022-08-14T07:40:09.892Z,61.40
2022-08-14T07:43:56.017Z,60.00
2022-08-14T07:47:42.523Z,58.60
2022-08-14T07:51:24.654Z,58.80
2022-08-14T07:55:10.096Z,58.30
2022-08-14T07:58:52.650Z,56.80
2022-08-14T08:02:35.495Z,55.90
2022-08-14T08:06:23.135Z,55.50
2022-08-14T08:10:40.685Z,53.60
2022-08-14T08:14:32.151Z,54.20
2022-08-14T08:18:36.104Z,52.10
2022-08-14T08:22:21.917Z,52.70
2022-08-14T08:26:04.166Z,51.30
2022-08-14T08:29:50.685Z,51.40
2022-08-14T08:33:37.483Z,50.80
2022-08-14T08:37:19.673Z,50.60
2022-08-14T08:41:01.869Z,50.40
2022-08-14T08:44:53.426Z,50.00
2022-08-14T08:48:52.067Z,49.70
2022-08-14T08:52:35.378Z,50.10
2022-08-14T08:56:30.773Z,48.90
2022-08-14T09:00:25.668Z,47.50
2022-08-14T09:04:14.961Z,46.50
2022-08-14T09:08:21.721Z,45.50
2022-08-14T09:12:15.230Z,46.10
2022-08-14T09:16:18.697Z,44.50
2022-08-14T09:20:02.317Z,44.10
2022-08-14T09:24:27.022Z,44.40
2022-08-14T09:27:48.678Z,44.20
2022-08-14T09:31:43.099Z,44.10
2022-08-14T09:35:43.777Z,43.40
2022-08-14T09:40:03.851Z,43.90
2022-08-14T09:43:55.173Z,44.00
2022-08-14T09:47:53.502Z,42.30
2022-08-14T09:51:45.070Z,42.50
2022-08-14T09:55:42.456Z,40.60
2022-08-14T09:59:27.862Z,39.60
2022-08-14T10:03:10.196Z,38.90
2022-08-14T10:06:54.356Z,37.90
2022-08-14T10:10:41.788Z,37.30
2022-08-14T10:14:34.758Z,36.20
2022-08-14T10:18:20.359Z,35.50
2022-08-14T10:23:13.471Z,34.90
2022-08-14T10:26:22.644Z,34.70
2022-08-14T10:30:22.823Z,35.20
2022-08-14T10:34:13.249Z,34.20
2022-08-14T10:38:00.831Z,33.00
2022-08-14T10:41:46.508Z,32.30
2022-08-14T10:45:35.835Z,30.70
2022-08-14T10:49:26.590Z,30.90
2022-08-14T10:53:10.525Z,29.70
2022-08-14T10:56:55.353Z,29.40
2022-08-14T11:00:39.348Z,29.30
2022-08-14T11:04:28.895Z,34.50
2022-08-14T11:08:15.510Z,29.30
2022-08-14T11:12:34.134Z,28.30
2022-08-14T11:16:02.166Z,28.40
2022-08-14T11:19:51.468Z,28.30
2022-08-14T11:23:41.301Z,27.90
2022-08-14T11:27:33.331Z,28.10
2022-08-14T11:31:23.632Z,27.40
2022-08-14T11:35:08.986Z,27.50
2022-08-14T11:38:53.772Z,27.40
2022-08-14T11:42:56.141Z,27.20
2022-08-14T11:46:41.805Z,27.10
2022-08-14T11:50:36.887Z,27.10
2022-08-14T11:54:20.286Z,26.40
2022-08-14T11:58:23.956Z,26.40
2022-08-14T12:03:01.837Z,26.20
2022-08-14T12:06:28.907Z,26.30
2022-08-14T12:10:26.199Z,25.70
2022-08-14T12:14:29.097Z,26.20
2022-08-14T12:18:19.440Z,26.20
2022-08-14T12:22:02.559Z,25.80
2022-08-14T12:25:44.562Z,26.00
2022-08-14T12:29:54.029Z,25.60
2022-08-14T12:33:36.106Z,26.40
2022-08-14T12:37:18.536Z,25.40
2022-08-14T12:41:06.495Z,25.30
2022-08-14T12:44:50.061Z,25.30
2022-08-14T12:48:32.964Z,25.80
2022-08-14T12:52:16.861Z,25.20
2022-08-14T12:56:21.294Z,24.80
2022-08-14T13:00:23.686Z,25.80
2022-08-14T13:04:15.114Z,25.60
2022-08-14T13:07:59.270Z,25.40
2022-08-14T13:11:58.495Z,25.10
2022-08-14T13:15:42.485Z,25.60
2022-08-14T13:19:28.299Z,25.60
2022-08-14T13:23:10.713Z,25.00
2022-08-14T13:27:00.538Z,25.70
2022-08-14T13:30:45.469Z,25.30
2022-08-14T13:34:31.503Z,25.10
2022-08-14T13:38:19.177Z,25.90
2022-08-14T13:42:10.950Z,25.40
2022-08-14T13:46:00.498Z,25.80
2022-08-14T13:49:57.539Z,25.30
2022-08-14T13:54:07.122Z,26.10
2022-08-14T13:58:04.346Z,25.10
2022-08-14T14:01:51.943Z,25.80
2022-08-14T14:05:53.207Z,25.50
2022-08-14T14:09:50.943Z,25.70
2022-08-14T14:13:36.181Z,25.80
2022-08-14T14:17:24.315Z,25.70
2022-08-14T14:21:06.556Z,26.40
2022-08-14T14:24:51.040Z,25.80
2022-08-14T14:28:34.160Z,26.40
2022-08-14T14:32:21.653Z,26.40
2022-08-14T14:36:05.202Z,26.20
2022-08-14T14:40:51.426Z,26.20
2022-08-14T14:43:54.289Z,26.00
2022-08-14T14:47:37.066Z,25.90
2022-08-14T14:51:19.685Z,25.70
2022-08-14T14:55:03.911Z,25.90
2022-08-14T14:58:46.312Z,26.90
2022-08-14T15:02:40.831Z,26.20
2022-08-14T15:06:30.362Z,26.50
2022-08-14T15:10:26.896Z,26.20
2022-08-14T15:14:54.921Z,26.10
2022-08-14T15:18:36.888Z,26.10
2022-08-14T15:22:17.501Z,26.70
2022-08-14T15:26:00.196Z,26.80
2022-08-14T15:29:43.511Z,26.30
2022-08-14T15:34:00.930Z,26.50
2022-08-14T15:37:46.555Z,26.40
2022-08-14T15:41:41.750Z,26.90
2022-08-14T15:45:23.962Z,26.80
2022-08-14T15:49:07.847Z,27.00
2022-08-14T15:52:50.330Z,27.00
2022-08-14T15:56:43.309Z,26.50
2022-08-14T16:00:49.438Z,26.80
2022-08-14T16:04:32.261Z,27.00
2022-08-14T16:08:29.760Z,27.40
2022-08-14T16:12:12.388Z,27.20
2022-08-14T16:15:56.650Z,27.10
2022-08-14T16:19:44.128Z,27.70
2022-08-14T16:23:27.886Z,27.80
2022-08-14T16:27:23.359Z,28.20
2022-08-14T16:31:24.691Z,28.00
2022-08-14T16:35:18.418Z,27.60
2022-08-14T16:39:02.125Z,28.30
2022-08-14T16:43:02.867Z,28.90
2022-08-14T16:46:48.279Z,29.30
2022-08-14T16:50:43.173Z,30.10
2022-08-14T16:54:34.890Z,30.00
2022-08-14T16:58:29.804Z,29.90
2022-08-14T17:02:12.352Z,30.60
2022-08-14T17:05:55.709Z,30.00
2022-08-14T17:09:43.584Z,30.40
2022-08-14T17:13:58.594Z,30.70
2022-08-14T17:17:40.314Z,30.70
2022-08-14T17:21:31.684Z,32.40
2022-08-14T17:25:30.083Z,31.90
2022-08-14T17:29:13.883Z,31.50
2022-08-14T17:32:59.032Z,32.30
2022-08-14T17:36:48.812Z,32.40
2022-08-14T17:40:31.925Z,32.50
2022-08-14T17:44:34.068Z,32.90
2022-08-14T17:49:16.302Z,33.00
2022-08-14T17:52:40.789Z,33.20
2022-08-14T17:56:25.034Z,33.20
2022-08-14T18:00:11.921Z,33.80
2022-08-14T18:03:56.639Z,33.80
2022-08-14T18:07:59.939Z,34.00
2022-08-14T18:11:45.926Z,34.30
2022-08-14T18:15:37.325Z,34.20
2022-08-14T18:19:22.081Z,34.50
2022-08-14T18:23:06.109Z,34.60
2022-08-14T18:27:08.616Z,34.60
2022-08-14T18:30:58.241Z,34.80
2022-08-14T18:34:50.728Z,35.70
2022-08-14T18:38:55.436Z,35.30
2022-08-14T18:42:36.078Z,35.50
2022-08-14T18:47:00.136Z,35.90
2022-08-14T18:50:30.702Z,36.30
2022-08-14T18:54:32.823Z,35.90
2022-08-14T18:58:57.256Z,35.70
2022-08-14T19:02:42.552Z,35.50
2022-08-14T19:06:55.830Z,36.80
2022-08-14T19:10:38.841Z,35.90
2022-08-14T19:14:50.490Z,37.30
2022-08-14T19:18:38.417Z,36.40
2022-08-14T19:22:30.244Z,38.00
2022-08-14T19:26:35.834Z,37.90
2022-08-14T19:30:23.369Z,37.90
2022-08-14T19:34:07.631Z,38.80
2022-08-14T19:37:54.069Z,39.00
2022-08-14T19:41:37.910Z,39.30
2022-08-14T19:45:25.587Z,39.70
2022-08-14T19:49:08.634Z,40.20
2022-08-14T19:53:11.048Z,40.50
2022-08-14T19:56:53.564Z,40.10
2022-08-14T20:00:35.809Z,41.30
2022-08-14T20:04:46.113Z,41.60
2022-08-14T20:11:00.003Z,41.90
2022-08-14T20:12:35.312Z,42.00
2022-08-14T20:16:21.133Z,42.20
2022-08-14T20:20:32.193Z,42.70
2022-08-14T20:24:41.129Z,42.50
2022-08-14T20:28:31.978Z,41.50
2022-08-14T20:32:14.872Z,43.70
2022-08-14T20:35:56.836Z,44.40
2022-08-14T20:39:54.774Z,44.80
2022-08-14T20:44:02.710Z,45.40
2022-08-14T20:48:01.000Z,45.70
2022-08-14T20:51:54.751Z,44.60
2022-08-14T20:55:45.405Z,46.80
2022-08-14T20:59:29.661Z,46.50
2022-08-14T21:03:28.894Z,47.20
2022-08-14T21:07:25.726Z,46.50
2022-08-14T21:11:21.770Z,47.70
2022-08-14T21:15:11.443Z,48.90
2022-08-14T21:18:58.161Z,48.20
2022-08-14T21:22:44.661Z,47.90
2022-08-14T21:26:50.883Z,48.10
2022-08-14T21:30:46.378Z,48.10
2022-08-14T21:34:32.407Z,48.40
2022-08-14T21:38:18.336Z,49.10
2022-08-14T21:42:00.512Z,49.40
2022-08-14T21:45:57.569Z,49.80
2022-08-14T21:49:46.158Z,49.80
2022-08-14T21:53:32.901Z,50.60
2022-08-14T21:57:17.402Z,50.80
2022-08-14T22:00:59.357Z,51.20
2022-08-14T22:04:41.641Z,51.30
2022-08-14T22:08:26.610Z,51.80
2022-08-14T22:12:10.702Z,51.90
2022-08-14T22:15:59.487Z,51.40
2022-08-14T22:19:47.258Z,51.70
2022-08-14T22:23:37.075Z,51.60
2022-08-14T22:27:21.192Z,51.60
2022-08-14T22:31:18.248Z,52.10
2022-08-14T22:35:05.556Z,52.10
2022-08-14T22:38:51.713Z,53.60
2022-08-14T22:42:57.559Z,53.20
2022-08-14T22:46:38.297Z,53.40
2022-08-14T22:50:30.567Z,52.80
2022-08-14T22:54:52.437Z,52.90
2022-08-14T22:58:17.564Z,52.30
2022-08-14T23:02:29.971Z,52.80
2022-08-14T23:07:03.027Z,52.80
2022-08-14T23:10:31.714Z,53.20
2022-08-14T23:14:23.995Z,53.40
2022-08-14T23:18:13.175Z,52.80
2022-08-14T23:21:55.362Z,53.10
2022-08-14T23:25:59.071Z,53.70
2022-08-14T23:29:43.217Z,53.60
2022-08-14T23:33:26.262Z,54.90
2022-08-14T23:37:08.677Z,54.60
2022-08-14T23:40:51.395Z,54.40
2022-08-14T23:44:36.976Z,54.80
2022-08-14T23:48:24.841Z,55.20
2022-08-14T23:53:04.178Z,55.40
2022-08-14T23:56:16.811Z,55.70
